sensor_id;sensor_type;location;lat;lon;timestamp;pressure;altitude;pressure_sealevel;temperature;humidity
75505;BME280;64085;54.974;73.410;2022-10-17T00:02:18;100106.94;;;4.79;83.97
75505;BME280;64085;54.974;73.410;2022-10-17T00:04:44;100112.91;;;4.81;83.58
75505;BME280;64085;54.974;73.410;2022-10-17T00:07:09;100104.69;;;4.81;83.42
75505;BME280;64085;54.974;73.410;2022-10-17T00:09:35;100100.34;;;4.80;83.16
75505;BME280;64085;54.974;73.410;2022-10-17T00:12:01;100077.44;;;4.59;83.25
75505;BME280;64085;54.974;73.410;2022-10-17T00:14:27;100114.66;;;4.86;83.01
75505;BME280;64085;54.974;73.410;2022-10-17T00:16:53;100083.91;;;4.63;83.31
75505;BME280;64085;54.974;73.410;2022-10-17T00:19:18;100104.03;;;4.84;82.86
75505;BME280;64085;54.974;73.410;2022-10-17T00:21:44;100098.88;;;4.83;82.55
75505;BME280;64085;54.974;73.410;2022-10-17T00:24:10;100077.78;;;4.74;82.37
75505;BME280;64085;54.974;73.410;2022-10-17T00:26:36;100106.44;;;4.86;82.80
75505;BME280;64085;54.974;73.410;2022-10-17T00:29:02;100121.75;;;4.95;82.30
75505;BME280;64085;54.974;73.410;2022-10-17T00:31:27;100080.50;;;4.66;82.33
75505;BME280;64085;54.974;73.410;2022-10-17T00:33:53;100100.97;;;4.86;82.33
75505;BME280;64085;54.974;73.410;2022-10-17T00:36:22;100122.75;;;4.91;82.09
75505;BME280;64085;54.974;73.410;2022-10-17T00:38:54;100115.34;;;4.91;82.20
75505;BME280;64085;54.974;73.410;2022-10-17T00:41:23;100119.03;;;4.87;82.58
75505;BME280;64085;54.974;73.410;2022-10-17T00:44:03;100122.06;;;4.76;82.98
75505;BME280;64085;54.974;73.410;2022-10-17T00:46:37;100131.28;;;4.80;82.86
75505;BME280;64085;54.974;73.410;2022-10-17T00:49:08;100117.06;;;4.70;83.24
75505;BME280;64085;54.974;73.410;2022-10-17T00:51:42;100126.94;;;4.79;83.83
75505;BME280;64085;54.974;73.410;2022-10-17T00:54:10;100125.16;;;4.84;83.58
75505;BME280;64085;54.974;73.410;2022-10-17T00:56:37;100127.88;;;4.75;83.82
75505;BME280;64085;54.974;73.410;2022-10-17T00:59:06;100138.19;;;4.95;83.76
75505;BME280;64085;54.974;73.410;2022-10-17T01:01:33;100130.94;;;4.82;84.12
75505;BME280;64085;54.974;73.410;2022-10-17T01:03:59;100134.03;;;4.89;84.46
75505;BME280;64085;54.974;73.410;2022-10-17T01:06:25;100142.59;;;4.96;84.24
75505;BME280;64085;54.974;73.410;2022-10-17T01:08:51;100154.84;;;5.07;84.25
75505;BME280;64085;54.974;73.410;2022-10-17T01:16:54;100140.00;;;5.17;83.77
75505;BME280;64085;54.974;73.410;2022-10-17T01:22:30;100143.41;;;5.23;83.87
75505;BME280;64085;54.974;73.410;2022-10-17T01:27:59;100146.13;;;5.31;83.26
75505;BME280;64085;54.974;73.410;2022-10-17T01:33:40;100150.97;;;5.34;83.52
75505;BME280;64085;54.974;73.410;2022-10-17T01:45:01;100159.19;;;5.34;83.60
75505;BME280;64085;54.974;73.410;2022-10-17T01:47:31;100149.50;;;5.46;83.70
75505;BME280;64085;54.974;73.410;2022-10-17T01:50:18;100149.84;;;5.35;83.62
75505;BME280;64085;54.974;73.410;2022-10-17T01:52:51;100158.22;;;5.48;83.38
75505;BME280;64085;54.974;73.410;2022-10-17T01:55:21;100163.22;;;5.46;83.53
75505;BME280;64085;54.974;73.410;2022-10-17T01:57:53;100146.75;;;5.37;84.01
75505;BME280;64085;54.974;73.410;2022-10-17T02:00:22;100167.41;;;5.60;83.27
75505;BME280;64085;54.974;73.410;2022-10-17T02:02:51;100157.41;;;5.56;83.54
75505;BME280;64085;54.974;73.410;2022-10-17T02:05:21;100166.09;;;5.75;83.41
75505;BME280;64085;54.974;73.410;2022-10-17T02:07:49;100165.63;;;5.73;83.40
75505;BME280;64085;54.974;73.410;2022-10-17T02:10:21;100134.81;;;5.59;82.63
75505;BME280;64085;54.974;73.410;2022-10-17T02:12:58;100171.56;;;5.84;82.75
75505;BME280;64085;54.974;73.410;2022-10-17T02:21:19;100181.41;;;5.93;81.62
75505;BME280;64085;54.974;73.410;2022-10-17T02:26:33;100197.00;;;6.19;81.58
75505;BME280;64085;54.974;73.410;2022-10-17T02:29:16;100182.97;;;6.12;81.03
75505;BME280;64085;54.974;73.410;2022-10-17T02:31:55;100183.47;;;6.23;80.81
75505;BME280;64085;54.974;73.410;2022-10-17T02:34:31;100201.53;;;6.24;80.53
75505;BME280;64085;54.974;73.410;2022-10-17T02:37:01;100201.66;;;6.27;80.76
75505;BME280;64085;54.974;73.410;2022-10-17T02:39:28;100204.59;;;6.31;80.40
75505;BME280;64085;54.974;73.410;2022-10-17T02:41:58;100181.41;;;6.02;80.54
75505;BME280;64085;54.974;73.410;2022-10-17T02:44:25;100208.41;;;6.38;79.58
75505;BME280;64085;54.974;73.410;2022-10-17T02:47:00;100221.34;;;6.38;79.93
75505;BME280;64085;54.974;73.410;2022-10-17T02:49:31;100218.75;;;6.41;79.64
75505;BME280;64085;54.974;73.410;2022-10-17T02:52:12;100218.59;;;6.38;79.33
75505;BME280;64085;54.974;73.410;2022-10-17T02:54:44;100224.38;;;6.45;79.82
75505;BME280;64085;54.974;73.410;2022-10-17T02:57:21;100227.09;;;6.54;79.44
75505;BME280;64085;54.974;73.410;2022-10-17T02:59:50;100216.59;;;6.56;78.79
75505;BME280;64085;54.974;73.410;2022-10-17T03:02:16;100228.06;;;6.58;79.16
75505;BME280;64085;54.974;73.410;2022-10-17T03:04:46;100205.38;;;6.31;79.14
75505;BME280;64085;54.974;73.410;2022-10-17T03:07:12;100238.41;;;6.52;78.74
75505;BME280;64085;54.974;73.410;2022-10-17T03:09:38;100244.88;;;6.56;78.20
75505;BME280;64085;54.974;73.410;2022-10-17T03:12:04;100161.84;;;6.04;78.53
75505;BME280;64085;54.974;73.410;2022-10-17T03:14:30;100206.50;;;6.30;78.67
75505;BME280;64085;54.974;73.410;2022-10-17T03:16:55;100237.28;;;6.53;78.49
75505;BME280;64085;54.974;73.410;2022-10-17T03:19:21;100244.25;;;6.51;78.11
75505;BME280;64085;54.974;73.410;2022-10-17T03:21:47;100200.22;;;6.21;78.43
75505;BME280;64085;54.974;73.410;2022-10-17T03:24:13;100245.53;;;6.53;78.99
75505;BME280;64085;54.974;73.410;2022-10-17T03:26:39;100250.50;;;6.60;78.26
75505;BME280;64085;54.974;73.410;2022-10-17T03:29:05;100212.63;;;6.36;78.57
75505;BME280;64085;54.974;73.410;2022-10-17T03:31:31;100262.44;;;6.64;78.38
75505;BME280;64085;54.974;73.410;2022-10-17T03:33:57;100261.97;;;6.62;77.83
75505;BME280;64085;54.974;73.410;2022-10-17T03:36:22;100257.94;;;6.59;78.38
75505;BME280;64085;54.974;73.410;2022-10-17T03:38:48;100266.19;;;6.59;77.59
75505;BME280;64085;54.974;73.410;2022-10-17T03:41:17;100275.88;;;6.65;77.57
75505;BME280;64085;54.974;73.410;2022-10-17T03:43:43;100268.47;;;6.57;78.25
75505;BME280;64085;54.974;73.410;2022-10-17T03:46:08;100266.19;;;6.59;77.74
75505;BME280;64085;54.974;73.410;2022-10-17T03:48:34;100274.44;;;6.59;78.13
75505;BME280;64085;54.974;73.410;2022-10-17T03:51:05;100265.06;;;6.60;78.31
75505;BME280;64085;54.974;73.410;2022-10-17T03:53:32;100272.31;;;6.65;78.15
75505;BME280;64085;54.974;73.410;2022-10-17T03:56:26;100218.16;;;6.18;78.67
75505;BME280;64085;54.974;73.410;2022-10-17T03:58:52;100278.16;;;6.55;78.50
75505;BME280;64085;54.974;73.410;2022-10-17T04:01:18;100268.78;;;6.47;78.73
75505;BME280;64085;54.974;73.410;2022-10-17T04:03:48;100279.47;;;6.48;78.97
75505;BME280;64085;54.974;73.410;2022-10-17T04:06:14;100277.00;;;6.56;78.34
75505;BME280;64085;54.974;73.410;2022-10-17T04:08:40;100279.41;;;6.66;78.64
75505;BME280;64085;54.974;73.410;2022-10-17T04:11:09;100272.91;;;6.70;78.74
75505;BME280;64085;54.974;73.410;2022-10-17T04:13:35;100246.78;;;6.56;78.38
75505;BME280;64085;54.974;73.410;2022-10-17T04:16:04;100274.41;;;6.68;78.60
75505;BME280;64085;54.974;73.410;2022-10-17T04:18:30;100284.84;;;6.83;78.79
75505;BME280;64085;54.974;73.410;2022-10-17T04:20:56;100270.13;;;6.79;77.63
75505;BME280;64085;54.974;73.410;2022-10-17T04:23:22;100279.03;;;6.85;77.46
75505;BME280;64085;54.974;73.410;2022-10-17T04:25:48;100277.78;;;6.73;77.65
75505;BME280;64085;54.974;73.410;2022-10-17T04:28:14;100269.59;;;6.94;77.50
75505;BME280;64085;54.974;73.410;2022-10-17T04:30:40;100268.31;;;6.92;76.53
75505;BME280;64085;54.974;73.410;2022-10-17T04:33:06;100288.84;;;6.94;76.54
75505;BME280;64085;54.974;73.410;2022-10-17T04:35:32;100292.59;;;6.90;77.28
75505;BME280;64085;54.974;73.410;2022-10-17T04:37:57;100290.91;;;6.97;76.89
75505;BME280;64085;54.974;73.410;2022-10-17T04:40:23;100283.34;;;6.94;75.53
75505;BME280;64085;54.974;73.410;2022-10-17T04:42:49;100297.41;;;6.93;75.87
75505;BME280;64085;54.974;73.410;2022-10-17T04:45:16;100251.88;;;6.83;74.80
75505;BME280;64085;54.974;73.410;2022-10-17T04:47:42;100280.50;;;7.12;73.82
75505;BME280;64085;54.974;73.410;2022-10-17T04:50:08;100287.59;;;7.13;74.26
75505;BME280;64085;54.974;73.410;2022-10-17T04:52:34;100293.22;;;7.25;73.01
75505;BME280;64085;54.974;73.410;2022-10-17T04:55:03;100236.09;;;7.01;72.22
75505;BME280;64085;54.974;73.410;2022-10-17T04:57:29;100299.94;;;7.36;72.89
75505;BME280;64085;54.974;73.410;2022-10-17T04:59:55;100273.13;;;7.33;72.15
75505;BME280;64085;54.974;73.410;2022-10-17T05:02:21;100289.13;;;7.31;72.37
75505;BME280;64085;54.974;73.410;2022-10-17T05:04:46;100284.00;;;7.21;72.19
75505;BME280;64085;54.974;73.410;2022-10-17T05:07:12;100278.44;;;7.09;72.72
75505;BME280;64085;54.974;73.410;2022-10-17T05:09:37;100280.31;;;7.17;72.84
75505;BME280;64085;54.974;73.410;2022-10-17T05:12:03;100280.78;;;7.19;72.14
75505;BME280;64085;54.974;73.410;2022-10-17T05:14:29;100254.25;;;6.93;72.52
75505;BME280;64085;54.974;73.410;2022-10-17T05:16:55;100286.38;;;7.31;72.33
75505;BME280;64085;54.974;73.410;2022-10-17T05:19:21;100291.09;;;7.72;70.86
75505;BME280;64085;54.974;73.410;2022-10-17T05:21:46;100282.34;;;9.15;66.21
75505;BME280;64085;54.974;73.410;2022-10-17T05:24:13;100293.84;;;13.22;54.55
75505;BME280;64085;54.974;73.410;2022-10-17T05:26:39;100280.41;;;14.81;50.00
75505;BME280;64085;54.974;73.410;2022-10-17T05:29:05;100272.72;;;13.70;52.32
75505;BME280;64085;54.974;73.410;2022-10-17T05:31:31;100239.59;;;12.14;53.61
75505;BME280;64085;54.974;73.410;2022-10-17T05:34:01;100229.91;;;11.30;56.31
75505;BME280;64085;54.974;73.410;2022-10-17T05:36:27;100249.59;;;10.78;58.34
75505;BME280;64085;54.974;73.410;2022-10-17T05:38:53;100291.38;;;10.45;59.24
75505;BME280;64085;54.974;73.410;2022-10-17T05:41:19;100291.63;;;10.11;60.25
75505;BME280;64085;54.974;73.410;2022-10-17T05:43:45;100293.28;;;9.88;60.97
75505;BME280;64085;54.974;73.410;2022-10-17T05:46:11;100294.41;;;9.59;61.87
75505;BME280;64085;54.974;73.410;2022-10-17T05:48:37;100289.63;;;9.19;62.64
75505;BME280;64085;54.974;73.410;2022-10-17T05:51:06;100288.91;;;9.47;62.11
75505;BME280;64085;54.974;73.410;2022-10-17T05:53:36;100256.84;;;11.17;56.68
75505;BME280;64085;54.974;73.410;2022-10-17T05:56:02;100293.78;;;12.11;55.43
75505;BME280;64085;54.974;73.410;2022-10-17T05:58:29;100298.44;;;12.07;54.64
75505;BME280;64085;54.974;73.410;2022-10-17T06:01:02;100297.84;;;11.12;56.63
75505;BME280;64085;54.974;73.410;2022-10-17T06:03:28;100286.53;;;10.13;59.70
75505;BME280;64085;54.974;73.410;2022-10-17T06:05:54;100293.50;;;9.43;61.17
75505;BME280;64085;54.974;73.410;2022-10-17T06:08:20;100292.47;;;8.86;63.42
75505;BME280;64085;54.974;73.410;2022-10-17T06:10:50;100292.78;;;8.60;65.23
75505;BME280;64085;54.974;73.410;2022-10-17T06:13:16;100298.50;;;8.55;65.08
75505;BME280;64085;54.974;73.410;2022-10-17T06:15:42;100295.09;;;8.70;65.24
75505;BME280;64085;54.974;73.410;2022-10-17T06:18:08;100297.41;;;9.29;64.53
75505;BME280;64085;54.974;73.410;2022-10-17T06:20:34;100252.81;;;10.08;60.96
75505;BME280;64085;54.974;73.410;2022-10-17T06:22:59;100301.06;;;11.65;57.38
75505;BME280;64085;54.974;73.410;2022-10-17T06:25:25;100291.25;;;12.64;54.14
75505;BME280;64085;54.974;73.410;2022-10-17T06:27:51;100299.00;;;12.55;51.92
75505;BME280;64085;54.974;73.410;2022-10-17T06:30:16;100320.06;;;13.24;50.47
75505;BME280;64085;54.974;73.410;2022-10-17T06:32:42;100306.34;;;12.89;50.84
75505;BME280;64085;54.974;73.410;2022-10-17T06:35:08;100317.63;;;12.16;53.63
75505;BME280;64085;54.974;73.410;2022-10-17T06:37:34;100255.56;;;11.46;54.58
75505;BME280;64085;54.974;73.410;2022-10-17T06:40:00;100316.22;;;11.36;55.71
75505;BME280;64085;54.974;73.410;2022-10-17T06:42:27;100308.25;;;11.34;54.59
75505;BME280;64085;54.974;73.410;2022-10-17T06:44:53;100327.19;;;11.32;55.14
75505;BME280;64085;54.974;73.410;2022-10-17T06:47:19;100266.06;;;11.06;54.74
75505;BME280;64085;54.974;73.410;2022-10-17T06:49:45;100317.75;;;11.02;56.08
75505;BME280;64085;54.974;73.410;2022-10-17T06:52:11;100326.53;;;10.76;55.92
75505;BME280;64085;54.974;73.410;2022-10-17T06:54:36;100328.97;;;11.24;54.33
75505;BME280;64085;54.974;73.410;2022-10-17T06:57:02;100316.66;;;11.06;54.68
75505;BME280;64085;54.974;73.410;2022-10-17T06:59:28;100311.94;;;10.91;55.51
75505;BME280;64085;54.974;73.410;2022-10-17T07:01:54;100267.78;;;10.63;55.84
75505;BME280;64085;54.974;73.410;2022-10-17T07:04:19;100330.13;;;11.39;54.79
75505;BME280;64085;54.974;73.410;2022-10-17T07:06:45;100325.84;;;11.77;53.68
75505;BME280;64085;54.974;73.410;2022-10-17T07:09:11;100317.03;;;12.26;52.27
75505;BME280;64085;54.974;73.410;2022-10-17T07:11:37;100314.72;;;12.28;52.25
75505;BME280;64085;54.974;73.410;2022-10-17T07:14:04;100303.47;;;12.21;51.39
75505;BME280;64085;54.974;73.410;2022-10-17T07:16:30;100308.72;;;12.06;52.15
75505;BME280;64085;54.974;73.410;2022-10-17T07:18:56;100266.34;;;11.51;51.82
75505;BME280;64085;54.974;73.410;2022-10-17T07:21:22;100315.91;;;11.56;53.10
75505;BME280;64085;54.974;73.410;2022-10-17T07:23:48;100257.88;;;10.93;53.93
75505;BME280;64085;54.974;73.410;2022-10-17T07:26:15;100321.66;;;11.16;53.46
75505;BME280;64085;54.974;73.410;2022-10-17T07:28:43;100310.44;;;10.78;54.01
75505;BME280;64085;54.974;73.410;2022-10-17T07:31:14;100322.97;;;10.75;54.50
75505;BME280;64085;54.974;73.410;2022-10-17T07:33:41;100313.25;;;10.65;54.82
75505;BME280;64085;54.974;73.410;2022-10-17T07:36:08;100305.84;;;11.01;54.53
75505;BME280;64085;54.974;73.410;2022-10-17T07:38:37;100315.25;;;11.12;54.31
75505;BME280;64085;54.974;73.410;2022-10-17T07:41:05;100306.22;;;11.15;54.26
75505;BME280;64085;54.974;73.410;2022-10-17T07:43:31;100309.41;;;11.33;53.83
75505;BME280;64085;54.974;73.410;2022-10-17T07:45:59;100306.53;;;11.96;51.61
75505;BME280;64085;54.974;73.410;2022-10-17T07:48:25;100302.75;;;12.04;51.52
75505;BME280;64085;54.974;73.410;2022-10-17T07:50:51;100240.94;;;11.65;51.21
75505;BME280;64085;54.974;73.410;2022-10-17T07:53:17;100298.81;;;11.70;51.25
75505;BME280;64085;54.974;73.410;2022-10-17T07:55:44;100302.31;;;11.51;51.48
75505;BME280;64085;54.974;73.410;2022-10-17T07:58:11;100301.59;;;11.35;51.69
75505;BME280;64085;54.974;73.410;2022-10-17T08:00:37;100306.94;;;11.12;51.84
75505;BME280;64085;54.974;73.410;2022-10-17T08:03:03;100307.94;;;10.88;52.53
75505;BME280;64085;54.974;73.410;2022-10-17T08:05:29;100298.53;;;10.93;52.82
75505;BME280;64085;54.974;73.410;2022-10-17T08:07:55;100310.06;;;10.95;52.75
75505;BME280;64085;54.974;73.410;2022-10-17T08:10:21;100309.44;;;10.70;53.99
75505;BME280;64085;54.974;73.410;2022-10-17T08:12:53;100280.28;;;10.29;54.73
75505;BME280;64085;54.974;73.410;2022-10-17T08:15:19;100298.94;;;10.48;55.02
75505;BME280;64085;54.974;73.410;2022-10-17T08:17:46;100301.22;;;10.74;54.16
75505;BME280;64085;54.974;73.410;2022-10-17T08:20:11;100305.78;;;10.97;53.75
75505;BME280;64085;54.974;73.410;2022-10-17T08:22:37;100251.44;;;10.74;52.58
75505;BME280;64085;54.974;73.410;2022-10-17T08:25:03;100297.13;;;10.99;52.41
75505;BME280;64085;54.974;73.410;2022-10-17T08:27:31;100272.13;;;10.64;52.89
75505;BME280;64085;54.974;73.410;2022-10-17T08:29:57;100309.78;;;10.84;52.64
75505;BME280;64085;54.974;73.410;2022-10-17T08:32:25;100312.16;;;10.54;53.32
75505;BME280;64085;54.974;73.410;2022-10-17T08:34:52;100302.88;;;10.19;54.33
75505;BME280;64085;54.974;73.410;2022-10-17T08:37:22;100321.03;;;9.79;55.41
75505;BME280;64085;54.974;73.410;2022-10-17T08:39:48;100268.25;;;9.04;57.98
75505;BME280;64085;54.974;73.410;2022-10-17T08:42:39;100328.50;;;8.81;60.58
75505;BME280;64085;54.974;73.410;2022-10-17T08:45:17;100330.91;;;8.37;63.43
75505;BME280;64085;54.974;73.410;2022-10-17T08:47:48;100334.41;;;8.05;65.54
75505;BME280;64085;54.974;73.410;2022-10-17T08:53:28;100342.03;;;7.28;70.20
75505;BME280;64085;54.974;73.410;2022-10-17T08:55:54;100337.31;;;6.99;70.91
75505;BME280;64085;54.974;73.410;2022-10-17T08:58:31;100334.91;;;6.89;72.77
75505;BME280;64085;54.974;73.410;2022-10-17T09:01:23;100343.16;;;6.89;74.15
75505;BME280;64085;54.974;73.410;2022-10-17T09:06:37;100318.34;;;7.06;73.74
75505;BME280;64085;54.974;73.410;2022-10-17T09:20:15;100345.41;;;7.63;74.82
75505;BME280;64085;54.974;73.410;2022-10-17T09:22:57;100351.41;;;7.56;75.04
75505;BME280;64085;54.974;73.410;2022-10-17T09:25:24;100352.19;;;7.36;76.39
75505;BME280;64085;54.974;73.410;2022-10-17T09:28:15;100347.19;;;7.29;76.03
75505;BME280;64085;54.974;73.410;2022-10-17T09:31:05;100348.16;;;7.33;76.03
75505;BME280;64085;54.974;73.410;2022-10-17T09:33:42;100346.00;;;7.39;76.73
75505;BME280;64085;54.974;73.410;2022-10-17T09:36:20;100347.09;;;7.47;76.98
75505;BME280;64085;54.974;73.410;2022-10-17T09:38:52;100346.75;;;7.78;75.75
75505;BME280;64085;54.974;73.410;2022-10-17T09:44:23;100346.75;;;8.40;72.81
75505;BME280;64085;54.974;73.410;2022-10-17T09:49:42;100344.16;;;8.44;71.51
75505;BME280;64085;54.974;73.410;2022-10-17T09:52:13;100335.47;;;8.33;71.11
75505;BME280;64085;54.974;73.410;2022-10-17T09:54:48;100347.72;;;8.44;71.11
75505;BME280;64085;54.974;73.410;2022-10-17T09:57:16;100340.94;;;8.42;70.43
75505;BME280;64085;54.974;73.410;2022-10-17T10:02:15;100346.69;;;8.49;70.13
75505;BME280;64085;54.974;73.410;2022-10-17T10:05:03;100344.19;;;8.56;69.76
75505;BME280;64085;54.974;73.410;2022-10-17T10:07:37;100339.91;;;8.46;69.05
75505;BME280;64085;54.974;73.410;2022-10-17T10:10:22;100344.41;;;8.51;70.63
75505;BME280;64085;54.974;73.410;2022-10-17T10:15:41;100353.16;;;8.11;71.54
75505;BME280;64085;54.974;73.410;2022-10-17T10:18:33;100352.19;;;7.66;71.06
75505;BME280;64085;54.974;73.410;2022-10-17T10:21:12;100361.50;;;7.14;72.14
75505;BME280;64085;54.974;73.410;2022-10-17T10:23:43;100351.59;;;6.84;73.14
75505;BME280;64085;54.974;73.410;2022-10-17T10:29:03;100362.41;;;6.80;71.35
75505;BME280;64085;54.974;73.410;2022-10-17T10:31:33;100354.88;;;6.68;71.32
75505;BME280;64085;54.974;73.410;2022-10-17T10:34:09;100343.13;;;6.51;72.04
75505;BME280;64085;54.974;73.410;2022-10-17T10:36:47;100371.50;;;6.72;72.35
75505;BME280;64085;54.974;73.410;2022-10-17T10:42:06;100364.06;;;6.81;71.91
75505;BME280;64085;54.974;73.410;2022-10-17T10:44:35;100247.72;;;6.13;72.31
75505;BME280;64085;54.974;73.410;2022-10-17T10:47:28;100365.94;;;6.89;72.18
75505;BME280;64085;54.974;73.410;2022-10-17T10:50:20;100365.81;;;6.86;71.67
75505;BME280;64085;54.974;73.410;2022-10-17T10:53:27;100357.94;;;6.75;71.38
75505;BME280;64085;54.974;73.410;2022-10-17T10:56:17;100351.78;;;6.70;72.07
75505;BME280;64085;54.974;73.410;2022-10-17T10:59:15;100356.31;;;6.74;71.89
75505;BME280;64085;54.974;73.410;2022-10-17T11:01:50;100356.25;;;6.92;71.42
75505;BME280;64085;54.974;73.410;2022-10-17T11:04:38;100360.97;;;6.91;72.08
75505;BME280;64085;54.974;73.410;2022-10-17T11:12:12;100358.94;;;7.09;71.02
75505;BME280;64085;54.974;73.410;2022-10-17T11:17:24;100315.75;;;6.63;71.21
75505;BME280;64085;54.974;73.410;2022-10-17T11:22:48;100310.00;;;6.30;73.35
75505;BME280;64085;54.974;73.410;2022-10-17T11:25:38;100369.59;;;6.55;74.80
75505;BME280;64085;54.974;73.410;2022-10-17T11:28:13;100384.66;;;6.40;74.80
75505;BME280;64085;54.974;73.410;2022-10-17T11:31:01;100375.59;;;6.31;74.89
75505;BME280;64085;54.974;73.410;2022-10-17T11:34:00;100375.56;;;6.05;76.34
75505;BME280;64085;54.974;73.410;2022-10-17T11:36:33;100363.25;;;5.77;76.66
75505;BME280;64085;54.974;73.410;2022-10-17T11:39:06;100359.22;;;5.57;77.01
75505;BME280;64085;54.974;73.410;2022-10-17T11:41:39;100384.53;;;5.71;76.96
75505;BME280;64085;54.974;73.410;2022-10-17T11:47:35;100317.72;;;5.41;76.97
75505;BME280;64085;54.974;73.410;2022-10-17T11:49:50;100384.41;;;5.76;77.27
75505;BME280;64085;54.974;73.410;2022-10-17T12:09:26;100376.81;;;5.64;76.66
75505;BME280;64085;54.974;73.410;2022-10-17T12:12:02;100262.78;;;4.89;76.64
75505;BME280;64085;54.974;73.410;2022-10-17T12:14:43;100367.75;;;5.55;77.02
75505;BME280;64085;54.974;73.410;2022-10-17T12:25:47;100389.31;;;5.40;77.70
75505;BME280;64085;54.974;73.410;2022-10-17T12:28:16;100384.63;;;5.31;78.10
75505;BME280;64085;54.974;73.410;2022-10-17T12:31:08;100387.97;;;5.28;78.38
75505;BME280;64085;54.974;73.410;2022-10-17T12:33:36;100390.72;;;5.28;78.51
75505;BME280;64085;54.974;73.410;2022-10-17T12:38:50;100396.03;;;5.25;78.59
75505;BME280;64085;54.974;73.410;2022-10-17T12:49:54;100405.94;;;5.12;78.86
75505;BME280;64085;54.974;73.410;2022-10-17T12:52:50;100408.53;;;5.08;78.98
75505;BME280;64085;54.974;73.410;2022-10-17T12:55:22;100415.94;;;5.08;78.89
75505;BME280;64085;54.974;73.410;2022-10-17T12:58:02;100421.06;;;5.01;79.15
75505;BME280;64085;54.974;73.410;2022-10-17T13:03:20;100421.53;;;5.03;78.93
75505;BME280;64085;54.974;73.410;2022-10-17T13:05:50;100322.88;;;4.32;79.19
75505;BME280;64085;54.974;73.410;2022-10-17T13:08:22;100422.66;;;5.02;79.37
75505;BME280;64085;54.974;73.410;2022-10-17T13:10:50;100424.75;;;4.96;78.82
75505;BME280;64085;54.974;73.410;2022-10-17T13:13:20;100435.34;;;4.89;79.72
75505;BME280;64085;54.974;73.410;2022-10-17T13:15:53;100411.13;;;4.83;79.44
75505;BME280;64085;54.974;73.410;2022-10-17T13:18:28;100422.25;;;4.86;79.75
75505;BME280;64085;54.974;73.410;2022-10-17T13:21:00;100415.34;;;4.89;79.68
75505;BME280;64085;54.974;73.410;2022-10-17T13:23:30;100426.97;;;4.94;79.86
75505;BME280;64085;54.974;73.410;2022-10-17T13:28:31;100357.81;;;4.58;79.74
75505;BME280;64085;54.974;73.410;2022-10-17T13:30:57;100421.75;;;5.06;79.52
75505;BME280;64085;54.974;73.410;2022-10-17T13:33:34;100425.13;;;5.12;79.05
75505;BME280;64085;54.974;73.410;2022-10-17T13:36:03;100420.16;;;5.14;79.12
75505;BME280;64085;54.974;73.410;2022-10-17T13:38:32;100431.28;;;5.18;78.76
75505;BME280;64085;54.974;73.410;2022-10-17T13:41:00;100427.88;;;5.12;78.51
75505;BME280;64085;54.974;73.410;2022-10-17T13:43:27;100421.91;;;5.10;78.89
75505;BME280;64085;54.974;73.410;2022-10-17T13:45:56;100423.53;;;5.11;79.06
75505;BME280;64085;54.974;73.410;2022-10-17T13:48:27;100420.53;;;5.21;78.83
75505;BME280;64085;54.974;73.410;2022-10-17T13:50:57;100427.31;;;5.24;78.61
75505;BME280;64085;54.974;73.410;2022-10-17T13:53:38;100420.81;;;5.20;78.49
75505;BME280;64085;54.974;73.410;2022-10-17T13:56:17;100427.91;;;5.21;78.77
75505;BME280;64085;54.974;73.410;2022-10-17T13:58:49;100432.78;;;5.24;78.58
75505;BME280;64085;54.974;73.410;2022-10-17T14:01:16;100364.94;;;4.90;78.48
75505;BME280;64085;54.974;73.410;2022-10-17T14:03:44;100432.59;;;5.20;78.35
75505;BME280;64085;54.974;73.410;2022-10-17T14:06:24;100424.38;;;5.20;78.62
75505;BME280;64085;54.974;73.410;2022-10-17T14:08:53;100429.03;;;5.20;78.50
75505;BME280;64085;54.974;73.410;2022-10-17T14:13:54;100421.47;;;5.17;77.74
75505;BME280;64085;54.974;73.410;2022-10-17T14:16:22;100430.97;;;5.19;78.32
75505;BME280;64085;54.974;73.410;2022-10-17T14:18:50;100435.53;;;5.24;78.50
75505;BME280;64085;54.974;73.410;2022-10-17T14:21:22;100424.88;;;5.22;78.29
75505;BME280;64085;54.974;73.410;2022-10-17T14:23:49;100440.56;;;5.30;78.21
75505;BME280;64085;54.974;73.410;2022-10-17T14:26:20;100393.53;;;5.06;78.14
75505;BME280;64085;54.974;73.410;2022-10-17T14:28:49;100428.16;;;5.33;77.92
75505;BME280;64085;54.974;73.410;2022-10-17T14:31:21;100382.88;;;5.04;77.80
75505;BME280;64085;54.974;73.410;2022-10-17T14:33:51;100395.16;;;5.07;77.86
75505;BME280;64085;54.974;73.410;2022-10-17T14:36:19;100443.63;;;5.37;77.89
75505;BME280;64085;54.974;73.410;2022-10-17T14:38:48;100440.28;;;5.41;77.58
75505;BME280;64085;54.974;73.410;2022-10-17T14:41:29;100439.44;;;5.31;77.23
75505;BME280;64085;54.974;73.410;2022-10-17T14:44:37;100425.00;;;5.17;77.84
75505;BME280;64085;54.974;73.410;2022-10-17T14:47:03;100440.66;;;5.17;77.31
75505;BME280;64085;54.974;73.410;2022-10-17T14:49:36;100427.03;;;5.03;77.49
75505;BME280;64085;54.974;73.410;2022-10-17T14:54:38;100427.94;;;4.90;78.07
75505;BME280;64085;54.974;73.410;2022-10-17T14:57:17;100430.47;;;4.86;78.53
75505;BME280;64085;54.974;73.410;2022-10-17T14:59:43;100426.75;;;4.82;78.42
75505;BME280;64085;54.974;73.410;2022-10-17T15:02:10;100394.53;;;4.57;79.03
75505;BME280;64085;54.974;73.410;2022-10-17T15:04:36;100404.25;;;4.63;79.53
75505;BME280;64085;54.974;73.410;2022-10-17T15:07:02;100441.69;;;4.76;78.78
75505;BME280;64085;54.974;73.410;2022-10-17T15:09:28;100435.88;;;4.77;79.07
75505;BME280;64085;54.974;73.410;2022-10-17T15:12:01;100357.00;;;4.35;78.63